Time;durP1;ratioP1;P1;durP2;ratioP2;P2;SDS_P1;SDS_P2;PMS_P1;PMS_P2;Temp;Humidity;BMP_temperature;BMP_pressure;BME280_temperature;BME280_humidity;BME280_pressure;Samples;Min_cycle;Max_cycle;Signal;HPM_P1;HPM_P2
2022/01/28 00:00:14;;;;;;;27.10;2.70;;;;;;;22.86;53.06;99407.91;7310857;19;129665;-41
2022/01/28 00:05:14;;;;;;;31.83;2.88;;;;;;;22.79;53.02;99406.88;7311600;19;130660;-39
2022/01/28 00:07:39;;;;;;;15.02;1.58;;;;;;;22.69;53.49;99393.84;7309676;19;130625;-41
2022/01/28 00:10:05;;;;;;;15.32;1.35;;;;;;;22.77;52.93;99408.84;7311020;19;156567;-41
2022/01/28 00:12:31;;;;;;;14.77;1.47;;;;;;;22.80;53.43;99411.16;7310959;19;129482;-42
2022/01/28 00:15:07;;;;;;;59.60;5.77;;;;;;;22.81;53.06;99397.88;7302918;19;129227;-41
2022/01/28 00:18:05;;;;;;;13.40;1.25;;;;;;;22.82;53.16;99414.44;7304586;19;130289;-40
2022/01/28 00:39:09;;;;;;;14.18;1.48;;;;;;;22.61;53.51;99437.53;7309664;19;158507;-41
2022/01/28 00:41:35;;;;;;;9.35;1.15;;;;;;;22.65;53.63;99470.31;7310839;19;129283;-40
2022/01/28 00:44:00;;;;;;;17.60;1.63;;;;;;;22.63;53.84;99472.25;7307306;19;131942;-41
2022/01/28 00:46:25;;;;;;;20.05;1.85;;;;;;;22.55;54.03;99486.09;7306815;19;145914;-40
2022/01/28 00:48:50;;;;;;;26.65;2.42;;;;;;;22.56;53.82;99481.69;7308418;19;158512;-41
2022/01/28 00:51:16;;;;;;;19.67;1.83;;;;;;;22.62;53.36;99486.34;7310212;19;137705;-41
2022/01/28 00:53:41;;;;;;;18.33;1.95;;;;;;;22.60;53.49;99488.28;7308160;19;155467;-40
2022/01/28 00:56:06;;;;;;;20.30;1.75;;;;;;;22.74;53.42;99511.34;7306210;19;152962;-40
2022/01/28 00:58:32;;;;;;;26.43;2.27;;;;;;;22.76;52.76;99515.47;7309667;19;130096;-40
2022/01/28 01:00:57;;;;;;;23.80;2.17;;;;;;;22.80;53.15;99521.22;7309726;19;129355;-41
2022/01/28 01:03:23;;;;;;;16.65;1.77;;;;;;;22.81;53.34;99520.25;7307777;19;154587;-41
2022/01/28 01:05:48;;;;;;;27.23;2.55;;;;;;;22.79;53.02;99509.91;7307043;19;129989;-42
2022/01/28 01:08:13;;;;;;;22.05;2.17;;;;;;;22.79;53.16;99514.34;7310612;19;159614;-40
2022/01/28 01:10:39;;;;;;;18.35;1.67;;;;;;;22.74;53.31;99519.22;7316237;19;130332;-40
2022/01/28 01:13:04;;;;;;;12.45;1.25;;;;;;;22.72;52.71;99505.44;7316600;19;131572;-41
2022/01/28 01:15:35;;;;;;;31.75;2.95;;;;;;;22.70;53.56;99530.97;7315898;19;129189;-39
2022/01/28 01:18:09;;;;;;;26.50;2.28;;;;;;;22.69;53.66;99529.31;7315789;19;130295;-41
2022/01/28 01:20:55;;;;;;;10.13;1.10;;;;;;;22.65;53.08;99533.19;7317706;19;130808;-41
2022/01/28 01:25:54;;;;;;;33.70;3.00;;;;;;;22.60;53.68;99556.41;7314883;19;129506;-41
2022/01/28 01:28:22;;;;;;;27.05;2.50;;;;;;;22.62;53.48;99538.75;7315432;19;130307;-41
2022/01/28 01:30:47;;;;;;;32.50;2.85;;;;;;;22.66;54.31;99546.16;7314971;19;130431;-41
2022/01/28 01:33:15;;;;;;;22.27;1.90;;;;;;;22.65;53.24;99541.06;7314778;19;129570;-39
2022/01/28 01:35:41;;;;;;;27.45;2.47;;;;;;;22.63;53.51;99540.38;7314302;19;129161;-39
2022/01/28 01:38:09;;;;;;;25.17;2.93;;;;;;;22.60;53.54;99532.81;7312987;19;130118;-40
2022/01/28 01:41:13;;;;;;;24.83;2.33;;;;;;;22.63;54.09;99543.00;7315559;19;130535;-42
2022/01/28 01:43:41;;;;;;;19.45;1.67;;;;;;;22.62;53.94;99547.44;7313593;19;130355;-39
2022/01/28 01:46:37;;;;;;;21.88;2.03;;;;;;;22.62;53.74;99543.97;7313827;19;129022;-40
2022/01/28 01:54:28;;;;;;;28.38;2.58;;;;;;;22.48;54.42;99557.53;7315148;19;128942;-40
2022/01/28 01:56:55;;;;;;;45.30;4.13;;;;;;;22.48;53.79;99576.69;7312553;19;130298;-40
2022/01/28 01:59:20;;;;;;;25.30;2.30;;;;;;;22.48;53.79;99554.91;7314601;19;129215;-41
2022/01/28 02:01:45;;;;;;;44.00;4.43;;;;;;;22.53;53.99;99550.09;7315486;19;130370;-40
2022/01/28 02:04:11;;;;;;;21.10;2.03;;;;;;;22.59;53.61;99554.75;7312405;19;155555;-41
2022/01/28 02:06:37;;;;;;;24.52;2.28;;;;;;;;;;7312232;19;154789;-41
2022/01/28 02:09:02;;;;;;;;;;;;;;;22.68;53.68;99569.59;7315556;19;129884;-41
2022/01/28 02:11:28;;;;;;;25.60;2.20;;;;;;;22.78;52.63;99580.84;7314438;19;151896;-41
2022/01/28 02:13:53;;;;;;;31.75;2.88;;;;;;;22.75;53.00;99581.13;7312990;19;154580;-41
2022/01/28 02:16:19;;;;;;;57.42;5.38;;;;;;;22.74;53.08;99585.53;7305985;19;133272;-41
2022/01/28 02:18:44;;;;;;;29.10;2.57;;;;;;;22.73;53.04;99583.91;7301585;19;131056;-41
2022/01/28 02:21:13;;;;;;;14.27;1.42;;;;;;;22.71;52.90;99598.16;7312839;19;159389;-39
2022/01/28 02:23:39;;;;;;;32.72;3.10;;;;;;;;;;7313147;19;129294;-40
2022/01/28 02:26:06;;;;;;;10.17;1.13;;;;;;;22.58;53.47;99581.91;7313379;19;129099;-41
2022/01/28 02:28:36;;;;;;;38.75;3.50;;;;;;;22.60;53.23;99606.19;7312121;19;130616;-41
2022/01/28 02:31:03;;;;;;;21.52;1.85;;;;;;;22.52;53.02;99596.41;7314529;19;130904;-41
2022/01/28 02:33:28;;;;;;;36.40;3.35;;;;;;;22.57;53.20;99596.84;7313444;19;130249;-39
2022/01/28 02:35:55;;;;;;;36.83;3.47;;;;;;;22.58;53.88;99608.13;7312098;19;130017;-40
2022/01/28 02:38:23;;;;;;;41.75;3.78;;;;;;;22.50;54.24;99600.97;7313012;19;130729;-41
2022/01/28 02:40:54;;;;;;;41.63;3.63;;;;;;;22.52;54.51;99606.06;7315044;19;130751;-42
2022/01/28 02:45:51;;;;;;;42.72;3.85;;;;;;;22.55;53.67;99587.44;7312294;19;129030;-39
2022/01/28 02:48:20;;;;;;;23.05;1.95;;;;;;;22.48;53.81;99591.59;7314125;19;131191;-41
2022/01/28 02:51:11;;;;;;;24.38;2.33;;;;;;;22.56;54.39;99603.03;7314685;19;129576;-42
2022/01/28 02:53:42;;;;;;;21.60;1.90;;;;;;;22.56;53.51;99613.50;7313178;19;129960;-41
2022/01/28 02:56:15;;;;;;;21.02;1.75;;;;;;;22.58;53.79;99608.94;7311667;19;130338;-40
2022/01/28 02:58:42;;;;;;;28.17;2.50;;;;;;;22.52;54.15;99606.06;7312884;19;130897;-39
2022/01/28 03:01:08;;;;;;;12.93;1.20;;;;;;;22.45;53.89;99608.44;7314117;19;130321;-40
2022/01/28 03:03:33;;;;;;;25.20;2.17;;;;;;;22.43;54.23;99607.75;7313182;19;130029;-41
2022/01/28 03:05:58;;;;;;;27.92;2.60;;;;;;;22.39;54.11;99605.56;7309586;19;154098;-41
2022/01/28 03:08:28;;;;;;;19.70;1.80;;;;;;;22.40;54.01;99615.91;7313362;19;157943;-41
2022/01/28 03:16:23;;;;;;;34.65;3.00;;;;;;;22.61;53.80;99613.09;7311730;19;129751;-41
2022/01/28 03:19:42;;;;;;;20.10;2.17;;;;;;;22.67;53.08;99609.88;7313357;19;130449;-41
2022/01/28 03:21:41;;;;;;;32.22;2.95;;;;;;;22.74;53.32;99616.19;7310455;19;129472;-41
2022/01/28 03:24:09;;;;;;;14.98;1.40;;;;;;;22.67;52.98;99609.88;7311070;19;130023;-40
2022/01/28 03:26:34;;;;;;;19.63;1.60;;;;;;;22.75;52.83;99628.31;7312040;19;129486;-41
2022/01/28 03:29:00;;;;;;;37.10;3.33;;;;;;;22.65;52.78;99614.44;7311830;19;129702;-40
2022/01/28 03:31:25;;;;;;;27.73;2.58;;;;;;;22.68;53.58;99635.09;7309161;19;158954;-41
2022/01/28 03:33:50;;;;;;;32.00;3.05;;;;;;;22.61;53.02;99642.72;7311920;19;129020;-41
2022/01/28 03:36:15;;;;;;;20.30;1.90;;;;;;;22.58;53.30;99642.19;7310828;19;129480;-41
2022/01/28 03:38:42;;;;;;;20.52;2.10;;;;;;;22.56;53.74;99639.72;7310241;19;158295;-42
2022/01/28 03:41:15;;;;;;;22.10;1.85;;;;;;;22.51;53.62;99643.72;7312000;19;130413;-41
2022/01/28 03:43:40;;;;;;;33.75;2.80;;;;;;;22.39;53.69;99642.25;7308808;19;131559;-41
2022/01/28 03:46:06;;;;;;;16.60;1.48;;;;;;;22.46;54.02;99665.09;7310810;19;129446;-41
2022/01/28 03:48:31;;;;;;;6.78;0.73;;;;;;;22.44;54.45;99653.94;7312045;19;131506;-42
2022/01/28 03:50:57;;;;;;;20.92;1.83;;;;;;;22.42;54.36;99658.50;7311497;19;130380;-40
2022/01/28 03:53:22;;;;;;;24.88;2.25;;;;;;;22.41;54.58;99674.38;7310824;19;129056;-40
2022/01/28 03:55:47;;;;;;;37.60;3.30;;;;;;;22.39;54.31;99665.81;7309845;19;153488;-41
2022/01/28 03:58:15;;;;;;;12.95;1.08;;;;;;;22.64;53.76;99667.81;7312120;19;130696;-40
2022/01/28 04:00:41;;;;;;;26.35;2.20;;;;;;;23.01;52.48;99671.22;7310814;19;156933;-43
2022/01/28 04:11:27;;;;;;;19.80;1.55;;;;;;;23.60;51.37;99686.47;7309484;19;128943;-41
2022/01/28 04:11:28;;;;;;;21.77;1.98;;;;;;;23.94;50.02;99688.22;7312851;19;130597;-39
2022/01/28 04:13:56;;;;;;;23.17;2.10;;;;;;;24.07;49.66;99677.34;7311511;19;129749;-41
2022/01/28 04:18:47;;;;;;;37.17;3.33;;;;;;;24.27;49.42;99705.06;7307536;19;158488;-41
2022/01/28 04:21:12;;;;;;;20.60;1.88;;;;;;;24.26;48.99;99698.19;7311790;19;129578;-41
2022/01/28 04:23:38;;;;;;;73.53;6.53;;;;;;;24.36;49.16;99696.28;7303705;19;144543;-41
2022/01/28 04:26:03;;;;;;;21.75;1.83;;;;;;;24.36;48.90;99697.09;7297040;19;147604;-41
2022/01/28 04:28:29;;;;;;;25.17;2.23;;;;;;;24.32;48.78;99687.03;7310382;19;157834;-40
2022/01/28 04:30:54;;;;;;;17.75;1.85;;;;;;;24.48;48.49;99711.63;7311496;19;129796;-42
2022/01/28 04:33:19;;;;;;;31.73;3.00;;;;;;;24.51;48.18;99701.78;7310010;19;154298;-40
2022/01/28 04:35:47;;;;;;;40.58;3.50;;;;;;;24.51;48.32;99707.84;7308125;19;129158;-41
2022/01/28 04:38:28;;;;;;;21.80;1.90;;;;;;;24.53;48.54;99715.59;7310177;19;130189;-42
2022/01/28 04:41:08;;;;;;;33.10;3.00;;;;;;;24.53;48.25;99726.13;7309927;19;130351;-41
2022/01/28 04:43:40;;;;;;;18.55;1.60;;;;;;;24.62;48.33;99725.16;7317044;19;130128;-41
2022/01/28 04:46:34;;;;;;;9.48;1.15;;;;;;;24.67;48.49;99728.16;7314759;19;129902;-41
2022/01/28 04:51:44;;;;;;;24.42;2.10;;;;;;;24.74;47.65;99742.38;7315190;19;159391;-41
2022/01/28 04:54:25;;;;;;;22.17;2.03;;;;;;;24.66;47.90;99737.03;7316689;19;130480;-41
2022/01/28 05:00:10;;;;;;;17.73;1.63;;;;;;;24.48;48.20;99738.91;7317677;19;129262;-41
2022/01/28 05:02:52;;;;;;;42.25;3.55;;;;;;;24.31;49.44;99757.16;7312783;19;129452;-40
2022/01/28 05:10:58;;;;;;;20.10;1.63;;;;;;;23.94;49.89;99756.50;7316246;19;129250;-41
2022/01/28 05:14:02;;;;;;;26.02;2.38;;;;;;;24.02;50.21;99769.75;7314994;19;130612;-40
2022/01/28 05:27:19;;;;;;;30.98;2.50;;;;;;;24.18;49.92;99780.38;7312638;19;130086;-38
2022/01/28 05:29:45;;;;;;;31.88;3.00;;;;;;;24.22;49.09;99781.75;7317345;19;129336;-39
2022/01/28 05:32:11;;;;;;;31.37;2.30;;;;;;;24.30;49.21;99779.16;7314249;19;130159;-39
2022/01/28 05:34:37;;;;;;;8.85;0.90;;;;;;;24.35;49.60;99792.69;7316112;19;130245;-39
2022/01/28 05:37:03;;;;;;;15.63;1.15;;;;;;;24.39;49.11;99793.19;7311749;19;129181;-39
2022/01/28 05:39:28;;;;;;;29.53;2.33;;;;;;;24.46;48.76;99784.53;7315148;19;129798;-38
2022/01/28 05:41:54;;;;;;;32.23;2.70;;;;;;;24.45;48.89;99776.81;7312293;19;158420;-39
2022/01/28 05:44:20;;;;;;;30.33;2.63;;;;;;;24.43;48.83;99798.00;7314804;19;129683;-38
2022/01/28 05:46:46;;;;;;;32.30;2.65;;;;;;;24.36;48.74;99786.44;7311954;19;130101;-40
2022/01/28 05:49:13;;;;;;;21.05;1.88;;;;;;;24.26;49.32;99793.56;7316682;19;128897;-38
2022/01/28 05:51:39;;;;;;;20.13;1.65;;;;;;;24.18;49.96;99790.09;7315512;19;131337;-39
2022/01/28 05:54:04;;;;;;;17.48;1.48;;;;;;;24.05;49.43;99803.56;7312952;19;130201;-39
2022/01/28 05:56:31;;;;;;;30.77;2.60;;;;;;;23.96;49.79;99801.84;7310117;19;154869;-39
2022/01/28 05:58:56;;;;;;;32.78;2.90;;;;;;;23.88;49.98;99804.34;7313448;19;129430;-40
2022/01/28 06:01:21;;;;;;;37.38;3.42;;;;;;;23.84;50.30;99813.53;7313195;19;139076;-41
2022/01/28 06:03:47;;;;;;;46.53;3.70;;;;;;;23.85;50.29;99817.78;7313417;19;159358;-39
2022/01/28 06:06:18;;;;;;;24.60;2.10;;;;;;;23.90;50.40;99818.16;7312553;19;129314;-39
2022/01/28 06:08:49;;;;;;;22.55;2.20;;;;;;;23.95;50.77;99825.59;7315423;19;130055;-39
2022/01/28 06:11:15;;;;;;;27.05;2.53;;;;;;;24.02;49.91;99827.53;7312926;19;130207;-41
2022/01/28 06:13:40;;;;;;;21.03;1.90;;;;;;;24.10;49.86;99839.91;7315126;19;130593;-41
2022/01/28 06:16:05;;;;;;;31.42;2.85;;;;;;;24.15;49.40;99843.75;7310779;19;129464;-40
2022/01/28 06:18:31;;;;;;;16.27;1.40;;;;;;;24.14;49.67;99830.75;7314647;19;128999;-41
2022/01/28 06:20:56;;;;;;;57.60;5.20;;;;;;;24.21;49.21;99844.94;7305367;19;131853;-42
2022/01/28 06:23:21;;;;;;;53.37;4.80;;;;;;;24.20;49.81;99836.22;7305129;19;130840;-40
2022/01/28 06:25:48;;;;;;;46.20;4.20;;;;;;;24.38;49.37;99850.19;7309567;19;154737;-38
2022/01/28 06:28:13;;;;;;;;;;;;;;;24.37;49.06;99848.53;7313915;19;130220;-42
2022/01/28 06:30:39;;;;;;;19.65;1.70;;;;;;;24.55;49.19;99860.81;7315325;19;130412;-41
2022/01/28 06:33:04;;;;;;;22.70;1.92;;;;;;;24.53;48.53;99862.81;7312351;19;158691;-39
2022/01/28 06:35:29;;;;;;;16.50;1.43;;;;;;;24.51;49.00;99862.13;7311449;19;154559;-40
2022/01/28 06:37:54;;;;;;;49.43;4.33;;;;;;;24.48;48.60;99861.44;7312647;19;154001;-39
2022/01/28 06:40:20;;;;;;;27.43;2.20;;;;;;;24.44;49.02;99864.53;7312220;19;158230;-39
2022/01/28 06:42:45;;;;;;;30.67;2.72;;;;;;;24.33;49.59;99870.00;7313859;19;130748;-39
2022/01/28 06:45:11;;;;;;;59.17;4.97;;;;;;;24.21;50.05;99879.91;7307988;19;129065;-39
2022/01/28 06:47:37;;;;;;;18.63;1.65;;;;;;;24.10;49.61;99882.75;7313205;19;129281;-40
2022/01/28 06:50:08;;;;;;;21.58;1.75;;;;;;;23.98;50.02;99886.56;7314670;19;129170;-40
2022/01/28 06:52:34;;;;;;;6.07;0.68;;;;;;;23.90;50.81;99889.06;7313030;19;129490;-39
2022/01/28 06:55:01;;;;;;;41.38;3.67;;;;;;;23.82;50.79;99910.00;7311993;19;129273;-40
2022/01/28 06:57:27;;;;;;;;;;;;;;;23.75;51.38;99898.41;7309113;19;130247;-39
2022/01/28 06:59:52;;;;;;;21.20;2.10;;;;;;;23.79;50.49;99910.28;7312363;19;131122;-40
2022/01/28 07:02:18;;;;;;;28.08;2.50;;;;;;;23.78;50.88;99908.66;7310323;19;158552;-41
2022/01/28 07:04:43;;;;;;;35.30;3.17;;;;;;;23.83;50.98;99903.75;7309215;19;155116;-40
2022/01/28 07:07:08;;;;;;;24.45;2.17;;;;;;;23.90;50.66;99906.66;7308591;19;153400;-40
2022/01/28 07:09:35;;;;;;;44.58;4.05;;;;;;;23.95;50.80;99915.72;7307999;19;158651;-40
2022/01/28 07:12:00;;;;;;;;;;;;;;;23.97;49.28;99923.44;7309565;19;130572;-44
2022/01/28 07:14:25;;;;;;;27.02;2.25;;;;;;;24.07;49.82;99932.97;7311807;19;129167;-39
2022/01/28 07:16:51;;;;;;;51.73;4.43;;;;;;;24.18;49.76;99932.75;7306789;19;154883;-39
2022/01/28 07:19:16;;;;;;;39.83;3.38;;;;;;;24.26;49.63;99945.97;7310622;19;158283;-38
2022/01/28 07:21:41;;;;;;;39.87;3.57;;;;;;;24.37;49.59;99956.28;7308335;19;158853;-39
2022/01/28 07:24:06;;;;;;;30.20;2.65;;;;;;;24.48;49.80;99935.03;7307138;19;155205;-40
2022/01/28 07:26:32;;;;;;;20.10;2.07;;;;;;;24.49;49.55;99941.94;7310209;19;131217;-38
2022/01/28 07:28:57;;;;;;;22.17;2.20;;;;;;;24.57;49.67;99948.25;7309343;19;157765;-38
2022/01/28 07:31:22;;;;;;;35.75;3.45;;;;;;;24.63;49.33;99960.78;7309513;19;159385;-38
2022/01/28 07:33:48;;;;;;;54.90;4.63;;;;;;;24.71;49.17;99955.66;7309194;19;130023;-38
2022/01/28 07:36:13;;;;;;;27.40;2.17;;;;;;;24.76;49.28;99956.84;7310442;19;129055;-39
2022/01/28 07:38:39;;;;;;;21.03;1.87;;;;;;;24.84;48.68;99967.44;7311455;19;129450;-40
2022/01/28 07:41:05;;;;;;;20.07;2.00;;;;;;;24.82;48.94;99965.94;7312682;19;130666;-39
2022/01/28 07:43:31;;;;;;;9.40;0.90;;;;;;;24.75;49.61;99972.78;7310720;19;129702;-38
2022/01/28 07:45:56;;;;;;;21.38;2.00;;;;;;;24.78;48.96;99972.47;7309457;19;128995;-39
2022/01/28 07:48:22;;;;;;;28.30;2.78;;;;;;;24.66;49.80;99976.28;7311799;19;132643;-39
2022/01/28 07:50:47;;;;;;;38.30;3.45;;;;;;;24.59;50.03;99983.13;7311742;19;131246;-38
2022/01/28 07:53:16;;;;;;;19.90;1.93;;;;;;;24.50;50.48;99979.56;7310136;19;155510;-39
2022/01/28 07:55:42;;;;;;;21.00;1.83;;;;;;;24.41;50.80;99991.81;7309114;19;131089;-38
2022/01/28 07:58:07;;;;;;;4.37;0.70;;;;;;;24.35;50.86;99992.41;7312570;19;129197;-38
2022/01/28 08:00:32;;;;;;;22.57;1.80;;;;;;;24.30;51.13;99994.66;7309101;19;157369;-39
2022/01/28 08:02:58;;;;;;;33.90;2.93;;;;;;;24.33;51.37;100002.22;7308906;19;155290;-39
2022/01/28 08:05:23;;;;;;;26.03;2.33;;;;;;;24.33;51.14;100004.84;7308916;19;129023;-38
2022/01/28 08:07:48;;;;;;;36.17;3.37;;;;;;;24.40;50.72;100013.81;7305100;19;158517;-39
2022/01/28 08:10:17;;;;;;;28.00;2.33;;;;;;;24.46;51.07;100013.22;7311829;19;130814;-39
2022/01/28 08:12:51;;;;;;;22.40;1.88;;;;;;;24.52;50.61;100032.00;7307236;19;128962;-42
2022/01/28 08:15:17;;;;;;;42.88;3.80;;;;;;;24.61;50.42;100028.50;7311345;19;129262;-39
2022/01/28 08:17:43;;;;;;;45.60;4.70;;;;;;;24.68;50.82;100022.50;7290395;19;130531;-41
2022/01/28 08:20:08;;;;;;;23.70;1.92;;;;;;;24.81;50.15;100035.31;7310528;19;129810;-38
2022/01/28 08:23:04;;;;;;;31.13;2.87;;;;;;;24.87;50.51;100045.22;7310404;19;130228;-39
2022/01/28 08:25:33;;;;;;;9.85;0.95;;;;;;;25.00;49.66;100050.94;7307665;19;129593;-39
2022/01/28 08:27:59;;;;;;;14.13;1.80;;;;;;;25.07;49.74;100057.25;7309711;19;129568;-40
2022/01/28 08:30:25;;;;;;;21.57;2.07;;;;;;;25.25;48.99;100056.28;7311067;19;130884;-39
2022/01/28 08:32:51;;;;;;;72.30;17.85;;;;;;;25.30;49.36;100068.97;7308622;19;129803;-38
2022/01/28 08:35:23;;;;;;;127.72;43.97;;;;;;;25.33;48.73;100072.13;7310378;19;128874;-39
2022/01/28 08:37:49;;;;;;;148.82;50.45;;;;;;;25.34;48.86;100075.56;7309633;19;130265;-38
2022/01/28 08:40:14;;;;;;;147.33;51.67;;;;;;;25.20;49.32;100081.38;7308649;19;130341;-39
2022/01/28 08:42:39;;;;;;;140.07;49.60;;;;;;;25.11;50.26;100080.47;7309592;19;129142;-39
2022/01/28 08:45:05;;;;;;;144.53;49.13;;;;;;;24.98;49.92;100100.22;7306383;19;129130;-41
2022/01/28 08:47:30;;;;;;;132.20;47.97;;;;;;;24.85;50.58;100089.25;7305746;19;129202;-39
